sensor_id;sensor_type;location;lat;lon;timestamp;temperature;humidity
796;DHT22;381;48.770;9.188;2022-10-16T00:01:26;17.30;99.90
796;DHT22;381;48.770;9.188;2022-10-16T00:06:31;17.30;99.90
796;DHT22;381;48.770;9.188;2022-10-16T00:11:37;17.30;99.90
796;DHT22;381;48.770;9.188;2022-10-16T00:16:43;17.30;99.90
796;DHT22;381;48.770;9.188;2022-10-16T00:21:45;17.20;99.90
796;DHT22;381;48.770;9.188;2022-10-16T00:26:50;17.20;99.90
796;DHT22;381;48.770;9.188;2022-10-16T00:31:52;17.20;99.90
796;DHT22;381;48.770;9.188;2022-10-16T00:36:54;17.10;99.90
796;DHT22;381;48.770;9.188;2022-10-16T00:41:57;17.10;99.90
796;DHT22;381;48.770;9.188;2022-10-16T00:46:59;17.00;99.90
796;DHT22;381;48.770;9.188;2022-10-16T00:52:02;17.00;99.90
796;DHT22;381;48.770;9.188;2022-10-16T00:57:06;17.00;99.90
796;DHT22;381;48.770;9.188;2022-10-16T01:02:12;17.00;99.90
796;DHT22;381;48.770;9.188;2022-10-16T01:07:19;17.00;99.90
796;DHT22;381;48.770;9.188;2022-10-16T01:12:35;17.00;99.90
796;DHT22;381;48.770;9.188;2022-10-16T01:17:43;17.00;99.90
796;DHT22;381;48.770;9.188;2022-10-16T01:22:56;17.00;99.90
796;DHT22;381;48.770;9.188;2022-10-16T01:28:02;17.00;99.90
796;DHT22;381;48.770;9.188;2022-10-16T01:33:10;17.00;99.90
796;DHT22;381;48.770;9.188;2022-10-16T01:38:19;17.00;99.90
796;DHT22;381;48.770;9.188;2022-10-16T01:43:26;16.90;99.90
796;DHT22;381;48.770;9.188;2022-10-16T01:48:31;16.90;99.90
796;DHT22;381;48.770;9.188;2022-10-16T01:53:34;16.90;99.90
796;DHT22;381;48.770;9.188;2022-10-16T01:58:42;17.00;99.90
796;DHT22;381;48.770;9.188;2022-10-16T02:03:46;17.00;99.90
796;DHT22;381;48.770;9.188;2022-10-16T02:08:51;17.00;99.90
796;DHT22;381;48.770;9.188;2022-10-16T02:14:00;17.00;99.90
796;DHT22;381;48.770;9.188;2022-10-16T02:19:03;17.00;99.90
796;DHT22;381;48.770;9.188;2022-10-16T02:24:11;17.10;99.90
796;DHT22;381;48.770;9.188;2022-10-16T02:29:19;17.10;99.90
796;DHT22;381;48.770;9.188;2022-10-16T02:34:25;17.10;99.90
796;DHT22;381;48.770;9.188;2022-10-16T02:39:28;17.10;99.90
796;DHT22;381;48.770;9.188;2022-10-16T02:44:32;17.10;99.90
796;DHT22;381;48.770;9.188;2022-10-16T02:49:34;17.10;99.90
796;DHT22;381;48.770;9.188;2022-10-16T02:54:36;17.10;99.90
796;DHT22;381;48.770;9.188;2022-10-16T02:59:39;17.10;99.90
796;DHT22;381;48.770;9.188;2022-10-16T03:04:45;17.10;99.90
796;DHT22;381;48.770;9.188;2022-10-16T03:09:47;17.10;99.90
796;DHT22;381;48.770;9.188;2022-10-16T03:14:50;17.00;99.90
796;DHT22;381;48.770;9.188;2022-10-16T03:19:52;17.00;99.90
796;DHT22;381;48.770;9.188;2022-10-16T03:24:54;17.00;99.90
796;DHT22;381;48.770;9.188;2022-10-16T03:29:57;17.00;99.90
796;DHT22;381;48.770;9.188;2022-10-16T03:35:00;17.00;99.90
796;DHT22;381;48.770;9.188;2022-10-16T03:40:02;17.00;99.90
796;DHT22;381;48.770;9.188;2022-10-16T03:45:06;16.90;99.90
796;DHT22;381;48.770;9.188;2022-10-16T03:50:08;16.90;99.90
796;DHT22;381;48.770;9.188;2022-10-16T03:55:10;16.90;99.90
796;DHT22;381;48.770;9.188;2022-10-16T04:00:14;16.90;99.90
796;DHT22;381;48.770;9.188;2022-10-16T04:05:16;16.80;99.90
796;DHT22;381;48.770;9.188;2022-10-16T04:10:18;16.80;99.90
796;DHT22;381;48.770;9.188;2022-10-16T04:15:22;16.80;99.90
796;DHT22;381;48.770;9.188;2022-10-16T04:20:24;16.80;99.90
796;DHT22;381;48.770;9.188;2022-10-16T04:25:26;16.80;99.90
796;DHT22;381;48.770;9.188;2022-10-16T04:30:30;16.70;99.90
796;DHT22;381;48.770;9.188;2022-10-16T04:35:32;16.70;99.90
796;DHT22;381;48.770;9.188;2022-10-16T04:40:34;16.70;99.90
796;DHT22;381;48.770;9.188;2022-10-16T04:45:38;16.70;99.90
796;DHT22;381;48.770;9.188;2022-10-16T04:50:41;16.60;99.90
796;DHT22;381;48.770;9.188;2022-10-16T04:55:43;16.60;99.90
796;DHT22;381;48.770;9.188;2022-10-16T05:00:46;16.60;99.90
796;DHT22;381;48.770;9.188;2022-10-16T05:05:48;16.60;99.90
796;DHT22;381;48.770;9.188;2022-10-16T05:10:51;16.60;99.90
796;DHT22;381;48.770;9.188;2022-10-16T05:15:54;16.70;99.90
796;DHT22;381;48.770;9.188;2022-10-16T05:20:56;16.70;99.90
796;DHT22;381;48.770;9.188;2022-10-16T05:25:59;16.60;99.90
796;DHT22;381;48.770;9.188;2022-10-16T05:31:05;16.60;99.90
796;DHT22;381;48.770;9.188;2022-10-16T05:36:09;16.60;99.90
796;DHT22;381;48.770;9.188;2022-10-16T05:41:11;16.50;99.90
796;DHT22;381;48.770;9.188;2022-10-16T05:46:15;16.50;99.90
796;DHT22;381;48.770;9.188;2022-10-16T05:51:17;16.50;99.90
796;DHT22;381;48.770;9.188;2022-10-16T05:56:19;16.50;99.90
796;DHT22;381;48.770;9.188;2022-10-16T06:01:22;16.50;99.90
796;DHT22;381;48.770;9.188;2022-10-16T06:06:26;16.50;99.90
796;DHT22;381;48.770;9.188;2022-10-16T06:11:30;16.50;99.90
796;DHT22;381;48.770;9.188;2022-10-16T06:16:36;16.60;99.90
796;DHT22;381;48.770;9.188;2022-10-16T06:21:38;16.60;99.90
796;DHT22;381;48.770;9.188;2022-10-16T06:26:40;16.60;99.90
796;DHT22;381;48.770;9.188;2022-10-16T06:31:43;16.60;99.90
796;DHT22;381;48.770;9.188;2022-10-16T06:36:45;16.70;99.90
796;DHT22;381;48.770;9.188;2022-10-16T06:41:47;16.70;99.90
796;DHT22;381;48.770;9.188;2022-10-16T06:46:51;16.70;99.90
796;DHT22;381;48.770;9.188;2022-10-16T06:51:53;16.80;99.90
796;DHT22;381;48.770;9.188;2022-10-16T06:56:55;16.90;99.90
796;DHT22;381;48.770;9.188;2022-10-16T07:07:36;17.00;99.90
796;DHT22;381;48.770;9.188;2022-10-16T07:12:38;17.00;99.90
796;DHT22;381;48.770;9.188;2022-10-16T07:17:40;17.10;99.90
796;DHT22;381;48.770;9.188;2022-10-16T07:22:44;17.20;99.90
796;DHT22;381;48.770;9.188;2022-10-16T07:27:46;17.30;99.90
796;DHT22;381;48.770;9.188;2022-10-16T07:32:48;17.40;99.90
796;DHT22;381;48.770;9.188;2022-10-16T07:37:51;17.40;99.90
796;DHT22;381;48.770;9.188;2022-10-16T07:42:53;17.50;99.90
796;DHT22;381;48.770;9.188;2022-10-16T07:47:56;17.50;99.90
796;DHT22;381;48.770;9.188;2022-10-16T07:52:59;17.50;99.90
796;DHT22;381;48.770;9.188;2022-10-16T07:58:01;17.60;99.90
796;DHT22;381;48.770;9.188;2022-10-16T08:03:03;17.70;99.90
796;DHT22;381;48.770;9.188;2022-10-16T08:08:12;17.70;99.90
796;DHT22;381;48.770;9.188;2022-10-16T08:13:14;17.80;99.90
796;DHT22;381;48.770;9.188;2022-10-16T08:18:16;17.90;99.90
796;DHT22;381;48.770;9.188;2022-10-16T08:23:20;18.00;99.90
796;DHT22;381;48.770;9.188;2022-10-16T08:28:23;18.10;99.90
796;DHT22;381;48.770;9.188;2022-10-16T08:33:25;18.30;99.90
796;DHT22;381;48.770;9.188;2022-10-16T08:38:28;18.40;99.90
796;DHT22;381;48.770;9.188;2022-10-16T08:43:43;18.60;99.90
796;DHT22;381;48.770;9.188;2022-10-16T08:48:48;18.80;99.90
796;DHT22;381;48.770;9.188;2022-10-16T08:53:55;18.90;99.90
796;DHT22;381;48.770;9.188;2022-10-16T08:58:59;18.80;99.90
796;DHT22;381;48.770;9.188;2022-10-16T09:04:14;18.90;99.90
796;DHT22;381;48.770;9.188;2022-10-16T09:09:35;18.90;99.90
796;DHT22;381;48.770;9.188;2022-10-16T09:14:58;19.00;99.90
796;DHT22;381;48.770;9.188;2022-10-16T09:20:15;19.10;99.90
796;DHT22;381;48.770;9.188;2022-10-16T09:25:21;19.20;99.90
796;DHT22;381;48.770;9.188;2022-10-16T09:30:26;19.40;99.90
796;DHT22;381;48.770;9.188;2022-10-16T09:35:35;19.50;99.90
796;DHT22;381;48.770;9.188;2022-10-16T09:40:41;19.50;99.90
796;DHT22;381;48.770;9.188;2022-10-16T09:45:53;19.50;99.90
796;DHT22;381;48.770;9.188;2022-10-16T09:50:57;19.50;99.90
796;DHT22;381;48.770;9.188;2022-10-16T09:56:01;19.50;99.90
796;DHT22;381;48.770;9.188;2022-10-16T10:01:04;19.60;99.90
796;DHT22;381;48.770;9.188;2022-10-16T10:06:21;19.70;99.90
796;DHT22;381;48.770;9.188;2022-10-16T10:11:47;19.60;99.90
796;DHT22;381;48.770;9.188;2022-10-16T10:16:51;19.70;99.90
796;DHT22;381;48.770;9.188;2022-10-16T10:21:54;19.80;99.90
796;DHT22;381;48.770;9.188;2022-10-16T10:27:03;19.90;99.90
796;DHT22;381;48.770;9.188;2022-10-16T10:32:18;19.90;99.90
796;DHT22;381;48.770;9.188;2022-10-16T10:37:38;19.90;99.90
796;DHT22;381;48.770;9.188;2022-10-16T10:42:50;19.80;99.90
796;DHT22;381;48.770;9.188;2022-10-16T10:48:21;19.70;99.90
796;DHT22;381;48.770;9.188;2022-10-16T10:53:35;19.80;99.90
796;DHT22;381;48.770;9.188;2022-10-16T10:59:05;19.80;99.90
796;DHT22;381;48.770;9.188;2022-10-16T11:09:59;19.70;99.90
796;DHT22;381;48.770;9.188;2022-10-16T11:15:12;19.60;99.90
796;DHT22;381;48.770;9.188;2022-10-16T11:20:19;19.50;99.90
796;DHT22;381;48.770;9.188;2022-10-16T11:25:24;19.30;99.90
796;DHT22;381;48.770;9.188;2022-10-16T11:30:33;19.30;99.90
796;DHT22;381;48.770;9.188;2022-10-16T11:35:43;19.30;99.90
796;DHT22;381;48.770;9.188;2022-10-16T11:40:49;19.20;99.90
796;DHT22;381;48.770;9.188;2022-10-16T11:45:54;19.30;99.90
796;DHT22;381;48.770;9.188;2022-10-16T11:51:00;19.30;99.90
796;DHT22;381;48.770;9.188;2022-10-16T11:56:07;19.30;99.90
796;DHT22;381;48.770;9.188;2022-10-16T12:01:17;19.30;99.90
796;DHT22;381;48.770;9.188;2022-10-16T12:06:28;19.40;99.90
796;DHT22;381;48.770;9.188;2022-10-16T12:11:35;19.50;99.90
796;DHT22;381;48.770;9.188;2022-10-16T12:16:50;19.50;99.90
796;DHT22;381;48.770;9.188;2022-10-16T12:21:56;19.60;99.90
796;DHT22;381;48.770;9.188;2022-10-16T12:26:58;19.70;99.90
796;DHT22;381;48.770;9.188;2022-10-16T12:32:03;19.80;99.90
796;DHT22;381;48.770;9.188;2022-10-16T12:37:13;19.80;99.90
796;DHT22;381;48.770;9.188;2022-10-16T12:42:32;19.90;99.90
796;DHT22;381;48.770;9.188;2022-10-16T12:47:47;19.80;99.90
796;DHT22;381;48.770;9.188;2022-10-16T12:52:49;19.80;99.90
796;DHT22;381;48.770;9.188;2022-10-16T12:58:07;19.80;99.90
796;DHT22;381;48.770;9.188;2022-10-16T13:03:44;19.90;99.90
796;DHT22;381;48.770;9.188;2022-10-16T13:09:11;19.90;99.90
796;DHT22;381;48.770;9.188;2022-10-16T13:14:25;19.80;99.90
796;DHT22;381;48.770;9.188;2022-10-16T13:19:35;19.70;99.90
796;DHT22;381;48.770;9.188;2022-10-16T13:24:49;19.70;99.90
796;DHT22;381;48.770;9.188;2022-10-16T13:30:01;19.70;99.90
796;DHT22;381;48.770;9.188;2022-10-16T13:35:18;19.80;99.90
796;DHT22;381;48.770;9.188;2022-10-16T13:40:22;19.80;99.90
796;DHT22;381;48.770;9.188;2022-10-16T13:45:25;19.80;99.90
796;DHT22;381;48.770;9.188;2022-10-16T13:50:35;19.90;99.90
796;DHT22;381;48.770;9.188;2022-10-16T13:55:38;20.00;99.90
796;DHT22;381;48.770;9.188;2022-10-16T14:00:40;20.30;99.90
796;DHT22;381;48.770;9.188;2022-10-16T14:05:47;20.40;99.90
796;DHT22;381;48.770;9.188;2022-10-16T14:10:52;20.40;99.90
796;DHT22;381;48.770;9.188;2022-10-16T14:15:55;20.40;99.90
796;DHT22;381;48.770;9.188;2022-10-16T14:21:04;20.40;99.90
796;DHT22;381;48.770;9.188;2022-10-16T14:26:18;20.50;99.90
796;DHT22;381;48.770;9.188;2022-10-16T14:31:27;20.60;99.90
796;DHT22;381;48.770;9.188;2022-10-16T14:36:31;20.60;99.90
796;DHT22;381;48.770;9.188;2022-10-16T14:41:43;20.60;99.90
796;DHT22;381;48.770;9.188;2022-10-16T14:46:47;20.60;99.90
796;DHT22;381;48.770;9.188;2022-10-16T14:51:50;20.50;99.90
796;DHT22;381;48.770;9.188;2022-10-16T14:56:55;20.50;99.90
796;DHT22;381;48.770;9.188;2022-10-16T15:01:58;20.50;99.90
796;DHT22;381;48.770;9.188;2022-10-16T15:07:01;20.50;99.90
796;DHT22;381;48.770;9.188;2022-10-16T15:12:04;20.50;99.90
796;DHT22;381;48.770;9.188;2022-10-16T15:17:08;20.40;99.90
796;DHT22;381;48.770;9.188;2022-10-16T15:22:12;20.40;99.90
796;DHT22;381;48.770;9.188;2022-10-16T15:27:14;20.50;99.90
796;DHT22;381;48.770;9.188;2022-10-16T15:32:16;20.50;99.90
796;DHT22;381;48.770;9.188;2022-10-16T15:37:19;20.40;99.90
796;DHT22;381;48.770;9.188;2022-10-16T15:42:21;20.40;99.90
796;DHT22;381;48.770;9.188;2022-10-16T15:47:23;20.30;99.90
796;DHT22;381;48.770;9.188;2022-10-16T15:52:27;20.20;99.90
796;DHT22;381;48.770;9.188;2022-10-16T15:57:29;20.10;99.90
796;DHT22;381;48.770;9.188;2022-10-16T16:02:31;20.10;99.90
796;DHT22;381;48.770;9.188;2022-10-16T16:07:35;20.00;99.90
796;DHT22;381;48.770;9.188;2022-10-16T16:12:40;19.90;99.90
796;DHT22;381;48.770;9.188;2022-10-16T16:17:42;19.80;99.90
796;DHT22;381;48.770;9.188;2022-10-16T16:22:46;19.70;99.90
796;DHT22;381;48.770;9.188;2022-10-16T16:27:49;19.50;99.90
796;DHT22;381;48.770;9.188;2022-10-16T16:32:52;19.40;99.90
796;DHT22;381;48.770;9.188;2022-10-16T16:37:56;19.30;99.90
796;DHT22;381;48.770;9.188;2022-10-16T16:42:58;19.20;99.90
796;DHT22;381;48.770;9.188;2022-10-16T16:48:00;19.10;99.90
796;DHT22;381;48.770;9.188;2022-10-16T16:53:04;19.10;99.90
796;DHT22;381;48.770;9.188;2022-10-16T16:58:06;19.00;99.90
796;DHT22;381;48.770;9.188;2022-10-16T17:03:08;18.90;99.90
796;DHT22;381;48.770;9.188;2022-10-16T17:08:12;18.90;99.90
796;DHT22;381;48.770;9.188;2022-10-16T17:13:17;18.80;99.90
796;DHT22;381;48.770;9.188;2022-10-16T17:18:20;18.80;99.90
796;DHT22;381;48.770;9.188;2022-10-16T17:23:24;18.70;99.90
796;DHT22;381;48.770;9.188;2022-10-16T17:28:26;18.70;99.90
796;DHT22;381;48.770;9.188;2022-10-16T17:33:30;18.60;99.90
796;DHT22;381;48.770;9.188;2022-10-16T17:38:34;18.50;99.90
796;DHT22;381;48.770;9.188;2022-10-16T17:43:37;18.50;99.90
796;DHT22;381;48.770;9.188;2022-10-16T17:48:41;18.40;99.90
796;DHT22;381;48.770;9.188;2022-10-16T17:53:49;18.30;99.90
796;DHT22;381;48.770;9.188;2022-10-16T17:58:53;18.30;99.90
796;DHT22;381;48.770;9.188;2022-10-16T18:03:57;18.20;99.90
796;DHT22;381;48.770;9.188;2022-10-16T18:09:02;18.20;99.90
796;DHT22;381;48.770;9.188;2022-10-16T18:14:05;18.10;99.90
796;DHT22;381;48.770;9.188;2022-10-16T18:19:07;18.10;99.90
796;DHT22;381;48.770;9.188;2022-10-16T18:24:11;18.00;99.90
796;DHT22;381;48.770;9.188;2022-10-16T18:29:13;18.00;99.90
796;DHT22;381;48.770;9.188;2022-10-16T18:34:16;17.90;99.90
796;DHT22;381;48.770;9.188;2022-10-16T18:39:19;17.80;99.90
796;DHT22;381;48.770;9.188;2022-10-16T18:44:23;17.80;99.90
796;DHT22;381;48.770;9.188;2022-10-16T18:49:25;17.80;99.90
796;DHT22;381;48.770;9.188;2022-10-16T18:54:29;17.70;99.90
796;DHT22;381;48.770;9.188;2022-10-16T18:59:31;17.70;99.90
796;DHT22;381;48.770;9.188;2022-10-16T19:04:33;17.70;99.90
796;DHT22;381;48.770;9.188;2022-10-16T19:09:37;17.60;99.90
796;DHT22;381;48.770;9.188;2022-10-16T19:14:39;17.60;99.90
796;DHT22;381;48.770;9.188;2022-10-16T19:19:41;17.60;99.90
796;DHT22;381;48.770;9.188;2022-10-16T19:24:45;17.50;99.90
796;DHT22;381;48.770;9.188;2022-10-16T19:29:47;17.50;99.90
796;DHT22;381;48.770;9.188;2022-10-16T19:34:49;17.50;99.90
796;DHT22;381;48.770;9.188;2022-10-16T19:39:53;17.40;99.90
796;DHT22;381;48.770;9.188;2022-10-16T19:44:55;17.40;99.90
796;DHT22;381;48.770;9.188;2022-10-16T19:49:57;17.40;99.90
796;DHT22;381;48.770;9.188;2022-10-16T19:55:00;17.40;99.90
796;DHT22;381;48.770;9.188;2022-10-16T20:00:03;17.30;99.90
796;DHT22;381;48.770;9.188;2022-10-16T20:05:08;17.30;99.90
796;DHT22;381;48.770;9.188;2022-10-16T20:10:11;17.30;99.90
796;DHT22;381;48.770;9.188;2022-10-16T20:15:13;17.30;99.90
796;DHT22;381;48.770;9.188;2022-10-16T20:20:16;17.20;99.90
796;DHT22;381;48.770;9.188;2022-10-16T20:25:19;17.20;99.90
796;DHT22;381;48.770;9.188;2022-10-16T20:30:21;17.20;99.90
796;DHT22;381;48.770;9.188;2022-10-16T20:35:23;17.20;99.90
796;DHT22;381;48.770;9.188;2022-10-16T20:40:27;17.20;99.90
796;DHT22;381;48.770;9.188;2022-10-16T20:45:29;17.10;99.90
796;DHT22;381;48.770;9.188;2022-10-16T20:50:32;17.10;99.90
796;DHT22;381;48.770;9.188;2022-10-16T20:55:36;17.10;99.90
796;DHT22;381;48.770;9.188;2022-10-16T21:00:38;17.10;99.90
796;DHT22;381;48.770;9.188;2022-10-16T21:05:41;17.00;99.90
796;DHT22;381;48.770;9.188;2022-10-16T21:10:44;17.00;99.90
796;DHT22;381;48.770;9.188;2022-10-16T21:15:46;16.90;99.90
796;DHT22;381;48.770;9.188;2022-10-16T21:20:51;16.90;99.90
796;DHT22;381;48.770;9.188;2022-10-16T21:25:55;16.90;99.90
796;DHT22;381;48.770;9.188;2022-10-16T21:30:57;16.80;99.90
796;DHT22;381;48.770;9.188;2022-10-16T21:35:59;16.80;99.90
796;DHT22;381;48.770;9.188;2022-10-16T21:41:11;16.80;99.90
796;DHT22;381;48.770;9.188;2022-10-16T21:46:13;16.70;99.90
796;DHT22;381;48.770;9.188;2022-10-16T21:51:16;16.70;99.90
796;DHT22;381;48.770;9.188;2022-10-16T21:56:19;16.70;99.90
796;DHT22;381;48.770;9.188;2022-10-16T22:01:22;16.60;99.90
796;DHT22;381;48.770;9.188;2022-10-16T22:06:26;16.60;99.90
796;DHT22;381;48.770;9.188;2022-10-16T22:11:31;16.50;99.90
796;DHT22;381;48.770;9.188;2022-10-16T22:16:37;16.60;99.90
796;DHT22;381;48.770;9.188;2022-10-16T22:21:40;16.50;99.90
796;DHT22;381;48.770;9.188;2022-10-16T22:26:44;16.50;99.90
796;DHT22;381;48.770;9.188;2022-10-16T22:31:50;16.50;99.90
796;DHT22;381;48.770;9.188;2022-10-16T22:36:52;16.40;99.90
796;DHT22;381;48.770;9.188;2022-10-16T22:41:55;16.40;99.90
796;DHT22;381;48.770;9.188;2022-10-16T22:46:57;16.30;99.90
796;DHT22;381;48.770;9.188;2022-10-16T22:51:59;16.30;99.90
796;DHT22;381;48.770;9.188;2022-10-16T22:57:03;16.30;99.90
796;DHT22;381;48.770;9.188;2022-10-16T23:02:05;16.30;99.90
796;DHT22;381;48.770;9.188;2022-10-16T23:07:07;16.30;99.90
796;DHT22;381;48.770;9.188;2022-10-16T23:12:10;16.30;99.90
796;DHT22;381;48.770;9.188;2022-10-16T23:17:12;16.30;99.90
796;DHT22;381;48.770;9.188;2022-10-16T23:22:14;16.20;99.90
796;DHT22;381;48.770;9.188;2022-10-16T23:27:18;16.20;99.90
796;DHT22;381;48.770;9.188;2022-10-16T23:32:20;16.10;99.90
796;DHT22;381;48.770;9.188;2022-10-16T23:37:22;16.10;99.90
796;DHT22;381;48.770;9.188;2022-10-16T23:42:25;16.10;99.90
796;DHT22;381;48.770;9.188;2022-10-16T23:47:27;16.10;99.90
796;DHT22;381;48.770;9.188;2022-10-16T23:52:29;16.10;99.90
796;DHT22;381;48.770;9.188;2022-10-16T23:57:32;16.00;99.90
